T79 weather

Skyway Manor Airport
Pearland, Texas, United States

Public forecast

Using degrees Fahrenheit for public forecast. Weather courtesy of forecast.io.

METAR (pilot weather report)

Closest report is Pearland Regional Airport, 4.9 nm (9.2 km) ESE. Retrieved 2019/07/17 12:53 UTC (46 minutes ago):

KLVJ 171253Z AUTO 00000KT 7SM FEW027 FEW033 28/25 A3007 RMK AO2 SLP180 T02830250

TAF (pilot weather forecast)

Closest forecast is William P Hobby Airport, 6.0 nm (11.0 km) NNE. Retrieved 2019/07/17 12:24 UTC (1 hour ago):

TAF KHOU 171122Z 1712/1812 17006KT P6SM SCT015 SCT025 FM171600 17011KT P6SM SCT040 FM180100 16007KT P6SM FEW030 SCT250 FM180900 17003KT P6SM SCT020